sensor_id;sensor_type;location;lat;lon;timestamp;P1;durP1;ratioP1;P2;durP2;ratioP2
29162;SDS011;20331;53.144;8.208;2023-12-04T00:00:10;25.85;;;13.77;;
29162;SDS011;20331;53.144;8.208;2023-12-04T00:05:32;30.73;;;15.68;;
29162;SDS011;20331;53.144;8.208;2023-12-04T00:10:53;26.40;;;14.93;;
29162;SDS011;20331;53.144;8.208;2023-12-04T00:16:15;28.60;;;15.77;;
29162;SDS011;20331;53.144;8.208;2023-12-04T00:21:37;30.05;;;16.63;;
29162;SDS011;20331;53.144;8.208;2023-12-04T00:26:58;32.90;;;15.95;;
29162;SDS011;20331;53.144;8.208;2023-12-04T00:32:20;32.72;;;16.88;;
29162;SDS011;20331;53.144;8.208;2023-12-04T00:37:41;32.55;;;17.40;;
29162;SDS011;20331;53.144;8.208;2023-12-04T00:43:03;30.38;;;17.33;;
29162;SDS011;20331;53.144;8.208;2023-12-04T00:48:25;33.35;;;18.33;;
29162;SDS011;20331;53.144;8.208;2023-12-04T00:53:46;32.88;;;17.88;;
29162;SDS011;20331;53.144;8.208;2023-12-04T00:59:08;32.83;;;17.50;;
29162;SDS011;20331;53.144;8.208;2023-12-04T01:04:31;34.75;;;18.65;;
29162;SDS011;20331;53.144;8.208;2023-12-04T01:09:52;31.00;;;17.70;;
29162;SDS011;20331;53.144;8.208;2023-12-04T01:15:14;33.13;;;18.30;;
29162;SDS011;20331;53.144;8.208;2023-12-04T01:20:35;32.58;;;18.10;;
29162;SDS011;20331;53.144;8.208;2023-12-04T01:25:57;35.00;;;18.40;;
29162;SDS011;20331;53.144;8.208;2023-12-04T01:31:19;34.90;;;18.95;;
29162;SDS011;20331;53.144;8.208;2023-12-04T01:36:40;37.72;;;19.30;;
29162;SDS011;20331;53.144;8.208;2023-12-04T01:42:02;35.13;;;18.40;;
29162;SDS011;20331;53.144;8.208;2023-12-04T01:47:24;32.97;;;18.10;;
29162;SDS011;20331;53.144;8.208;2023-12-04T01:52:47;34.38;;;18.10;;
29162;SDS011;20331;53.144;8.208;2023-12-04T01:58:10;35.85;;;18.45;;
29162;SDS011;20331;53.144;8.208;2023-12-04T02:03:32;33.30;;;18.77;;
29162;SDS011;20331;53.144;8.208;2023-12-04T02:08:54;37.15;;;19.33;;
29162;SDS011;20331;53.144;8.208;2023-12-04T02:14:17;32.67;;;18.70;;
29162;SDS011;20331;53.144;8.208;2023-12-04T02:19:39;37.88;;;19.45;;
29162;SDS011;20331;53.144;8.208;2023-12-04T02:25:01;34.50;;;18.17;;
29162;SDS011;20331;53.144;8.208;2023-12-04T02:30:23;35.30;;;18.67;;
29162;SDS011;20331;53.144;8.208;2023-12-04T02:35:46;34.90;;;18.15;;
29162;SDS011;20331;53.144;8.208;2023-12-04T02:41:11;35.17;;;17.65;;
29162;SDS011;20331;53.144;8.208;2023-12-04T02:46:33;36.03;;;18.75;;
29162;SDS011;20331;53.144;8.208;2023-12-04T02:51:55;32.40;;;17.17;;
29162;SDS011;20331;53.144;8.208;2023-12-04T02:57:18;33.65;;;17.92;;
29162;SDS011;20331;53.144;8.208;2023-12-04T03:02:41;35.63;;;17.83;;
29162;SDS011;20331;53.144;8.208;2023-12-04T03:08:03;33.28;;;17.33;;
29162;SDS011;20331;53.144;8.208;2023-12-04T03:13:24;33.70;;;18.58;;
29162;SDS011;20331;53.144;8.208;2023-12-04T03:18:46;33.58;;;17.48;;
29162;SDS011;20331;53.144;8.208;2023-12-04T03:24:08;36.75;;;18.25;;
29162;SDS011;20331;53.144;8.208;2023-12-04T03:29:30;30.55;;;17.33;;
29162;SDS011;20331;53.144;8.208;2023-12-04T03:34:51;33.17;;;16.98;;
29162;SDS011;20331;53.144;8.208;2023-12-04T03:40:13;36.58;;;17.65;;
29162;SDS011;20331;53.144;8.208;2023-12-04T03:45:34;33.95;;;18.25;;
29162;SDS011;20331;53.144;8.208;2023-12-04T03:50:56;34.83;;;18.08;;
29162;SDS011;20331;53.144;8.208;2023-12-04T03:56:18;33.88;;;18.02;;
29162;SDS011;20331;53.144;8.208;2023-12-04T04:01:39;33.33;;;18.70;;
29162;SDS011;20331;53.144;8.208;2023-12-04T04:07:01;38.03;;;18.50;;
29162;SDS011;20331;53.144;8.208;2023-12-04T04:12:23;32.85;;;17.98;;
29162;SDS011;20331;53.144;8.208;2023-12-04T04:17:44;32.47;;;18.20;;
29162;SDS011;20331;53.144;8.208;2023-12-04T04:23:06;36.85;;;18.17;;
29162;SDS011;20331;53.144;8.208;2023-12-04T04:28:28;32.38;;;18.35;;
29162;SDS011;20331;53.144;8.208;2023-12-04T04:33:50;35.60;;;17.52;;
29162;SDS011;20331;53.144;8.208;2023-12-04T04:39:12;35.30;;;16.88;;
29162;SDS011;20331;53.144;8.208;2023-12-04T04:44:34;36.58;;;18.77;;
29162;SDS011;20331;53.144;8.208;2023-12-04T04:49:56;31.48;;;17.75;;
29162;SDS011;20331;53.144;8.208;2023-12-04T04:55:20;31.58;;;16.98;;
29162;SDS011;20331;53.144;8.208;2023-12-04T05:01:02;31.85;;;16.48;;
29162;SDS011;20331;53.144;8.208;2023-12-04T05:06:24;34.58;;;17.55;;
29162;SDS011;20331;53.144;8.208;2023-12-04T05:11:46;35.25;;;17.63;;
29162;SDS011;20331;53.144;8.208;2023-12-04T05:17:07;33.67;;;17.83;;
29162;SDS011;20331;53.144;8.208;2023-12-04T05:22:29;31.40;;;17.42;;
29162;SDS011;20331;53.144;8.208;2023-12-04T05:27:50;32.00;;;17.35;;
29162;SDS011;20331;53.144;8.208;2023-12-04T05:33:12;36.92;;;17.67;;
29162;SDS011;20331;53.144;8.208;2023-12-04T05:38:34;32.78;;;17.45;;
29162;SDS011;20331;53.144;8.208;2023-12-04T05:43:55;32.17;;;17.42;;
29162;SDS011;20331;53.144;8.208;2023-12-04T05:49:17;31.55;;;17.33;;
29162;SDS011;20331;53.144;8.208;2023-12-04T05:54:39;35.17;;;17.58;;
29162;SDS011;20331;53.144;8.208;2023-12-04T06:00:01;30.67;;;17.35;;
29162;SDS011;20331;53.144;8.208;2023-12-04T06:05:22;32.33;;;17.15;;
29162;SDS011;20331;53.144;8.208;2023-12-04T06:10:45;31.38;;;16.75;;
29162;SDS011;20331;53.144;8.208;2023-12-04T06:16:07;34.20;;;17.15;;
29162;SDS011;20331;53.144;8.208;2023-12-04T06:21:29;32.08;;;17.40;;
29162;SDS011;20331;53.144;8.208;2023-12-04T06:26:52;31.98;;;16.92;;
29162;SDS011;20331;53.144;8.208;2023-12-04T06:32:14;31.20;;;16.85;;
29162;SDS011;20331;53.144;8.208;2023-12-04T06:37:37;29.42;;;15.90;;
29162;SDS011;20331;53.144;8.208;2023-12-04T06:43:00;30.77;;;16.00;;
29162;SDS011;20331;53.144;8.208;2023-12-04T06:48:22;31.35;;;16.95;;
29162;SDS011;20331;53.144;8.208;2023-12-04T06:53:43;30.05;;;16.52;;
29162;SDS011;20331;53.144;8.208;2023-12-04T06:59:05;28.98;;;16.02;;
29162;SDS011;20331;53.144;8.208;2023-12-04T07:04:27;27.27;;;15.73;;
29162;SDS011;20331;53.144;8.208;2023-12-04T07:09:48;31.42;;;16.95;;
29162;SDS011;20331;53.144;8.208;2023-12-04T07:15:10;31.80;;;16.35;;
29162;SDS011;20331;53.144;8.208;2023-12-04T07:20:33;32.35;;;15.63;;
29162;SDS011;20331;53.144;8.208;2023-12-04T07:25:54;30.80;;;16.02;;
29162;SDS011;20331;53.144;8.208;2023-12-04T07:31:19;30.75;;;16.70;;
29162;SDS011;20331;53.144;8.208;2023-12-04T07:36:40;29.75;;;16.27;;
29162;SDS011;20331;53.144;8.208;2023-12-04T07:42:02;45.08;;;18.25;;
29162;SDS011;20331;53.144;8.208;2023-12-04T07:47:33;31.85;;;15.75;;
29162;SDS011;20331;53.144;8.208;2023-12-04T07:52:55;24.95;;;14.65;;
29162;SDS011;20331;53.144;8.208;2023-12-04T07:58:17;25.45;;;14.30;;
29162;SDS011;20331;53.144;8.208;2023-12-04T08:03:39;26.08;;;14.88;;
29162;SDS011;20331;53.144;8.208;2023-12-04T08:09:00;26.52;;;14.68;;
29162;SDS011;20331;53.144;8.208;2023-12-04T08:14:22;23.38;;;14.15;;
29162;SDS011;20331;53.144;8.208;2023-12-04T08:19:44;33.78;;;14.52;;
29162;SDS011;20331;53.144;8.208;2023-12-04T08:25:07;23.42;;;13.48;;
29162;SDS011;20331;53.144;8.208;2023-12-04T08:30:29;26.23;;;13.05;;
29162;SDS011;20331;53.144;8.208;2023-12-04T08:35:51;23.83;;;13.70;;
29162;SDS011;20331;53.144;8.208;2023-12-04T08:41:12;21.83;;;12.60;;
29162;SDS011;20331;53.144;8.208;2023-12-04T08:46:34;21.20;;;12.43;;
29162;SDS011;20331;53.144;8.208;2023-12-04T08:51:56;22.10;;;12.30;;
29162;SDS011;20331;53.144;8.208;2023-12-04T08:57:17;23.27;;;12.95;;
29162;SDS011;20331;53.144;8.208;2023-12-04T09:02:39;25.08;;;13.25;;
29162;SDS011;20331;53.144;8.208;2023-12-04T09:08:10;22.63;;;12.55;;
29162;SDS011;20331;53.144;8.208;2023-12-04T09:13:51;20.63;;;12.00;;
29162;SDS011;20331;53.144;8.208;2023-12-04T09:19:13;18.88;;;11.63;;
29162;SDS011;20331;53.144;8.208;2023-12-04T09:24:35;21.15;;;11.93;;
29162;SDS011;20331;53.144;8.208;2023-12-04T09:29:56;22.55;;;12.82;;
29162;SDS011;20331;53.144;8.208;2023-12-04T09:35:18;20.15;;;11.70;;
29162;SDS011;20331;53.144;8.208;2023-12-04T09:40:40;18.65;;;11.68;;
29162;SDS011;20331;53.144;8.208;2023-12-04T09:46:02;20.17;;;11.50;;
29162;SDS011;20331;53.144;8.208;2023-12-04T09:51:23;23.02;;;11.02;;
29162;SDS011;20331;53.144;8.208;2023-12-04T09:56:48;22.27;;;10.95;;
29162;SDS011;20331;53.144;8.208;2023-12-04T10:02:11;19.85;;;11.80;;
29162;SDS011;20331;53.144;8.208;2023-12-04T10:07:33;20.20;;;11.70;;
29162;SDS011;20331;53.144;8.208;2023-12-04T10:12:57;20.48;;;11.70;;
29162;SDS011;20331;53.144;8.208;2023-12-04T10:18:26;21.15;;;11.55;;
29162;SDS011;20331;53.144;8.208;2023-12-04T10:23:51;20.05;;;10.85;;
29162;SDS011;20331;53.144;8.208;2023-12-04T10:29:13;16.17;;;10.52;;
29162;SDS011;20331;53.144;8.208;2023-12-04T10:34:34;23.63;;;12.23;;
29162;SDS011;20331;53.144;8.208;2023-12-04T10:39:56;19.15;;;11.05;;
29162;SDS011;20331;53.144;8.208;2023-12-04T10:45:18;17.92;;;11.43;;
29162;SDS011;20331;53.144;8.208;2023-12-04T10:50:44;16.00;;;10.03;;
29162;SDS011;20331;53.144;8.208;2023-12-04T10:56:25;17.23;;;10.63;;
29162;SDS011;20331;53.144;8.208;2023-12-04T11:01:54;20.00;;;11.05;;
29162;SDS011;20331;53.144;8.208;2023-12-04T11:07:18;17.95;;;10.68;;
29162;SDS011;20331;53.144;8.208;2023-12-04T11:12:43;18.92;;;10.55;;
29162;SDS011;20331;53.144;8.208;2023-12-04T11:18:07;17.65;;;10.23;;
29162;SDS011;20331;53.144;8.208;2023-12-04T11:23:31;18.45;;;10.88;;
29162;SDS011;20331;53.144;8.208;2023-12-04T11:28:53;24.42;;;11.50;;
29162;SDS011;20331;53.144;8.208;2023-12-04T11:34:15;18.55;;;10.30;;
29162;SDS011;20331;53.144;8.208;2023-12-04T11:39:37;19.42;;;11.00;;
29162;SDS011;20331;53.144;8.208;2023-12-04T11:44:59;17.23;;;10.57;;
29162;SDS011;20331;53.144;8.208;2023-12-04T11:50:24;16.63;;;10.48;;
29162;SDS011;20331;53.144;8.208;2023-12-04T11:55:46;16.95;;;10.50;;
29162;SDS011;20331;53.144;8.208;2023-12-04T12:01:08;16.55;;;9.95;;
29162;SDS011;20331;53.144;8.208;2023-12-04T12:06:32;17.25;;;10.00;;
29162;SDS011;20331;53.144;8.208;2023-12-04T12:11:54;16.88;;;10.55;;
29162;SDS011;20331;53.144;8.208;2023-12-04T12:17:16;16.75;;;10.10;;
29162;SDS011;20331;53.144;8.208;2023-12-04T12:22:38;16.38;;;10.45;;
29162;SDS011;20331;53.144;8.208;2023-12-04T12:28:05;16.98;;;10.48;;
29162;SDS011;20331;53.144;8.208;2023-12-04T12:33:26;15.48;;;9.57;;
29162;SDS011;20331;53.144;8.208;2023-12-04T12:38:48;17.05;;;9.77;;
29162;SDS011;20331;53.144;8.208;2023-12-04T12:44:11;16.33;;;10.07;;
29162;SDS011;20331;53.144;8.208;2023-12-04T12:49:33;16.88;;;10.35;;
29162;SDS011;20331;53.144;8.208;2023-12-04T12:55:02;17.05;;;10.02;;
29162;SDS011;20331;53.144;8.208;2023-12-04T13:00:26;16.08;;;10.30;;
29162;SDS011;20331;53.144;8.208;2023-12-04T13:05:49;15.15;;;9.85;;
29162;SDS011;20331;53.144;8.208;2023-12-04T13:11:11;15.35;;;9.30;;
29162;SDS011;20331;53.144;8.208;2023-12-04T13:16:34;15.77;;;9.77;;
29162;SDS011;20331;53.144;8.208;2023-12-04T13:21:57;13.00;;;9.13;;
29162;SDS011;20331;53.144;8.208;2023-12-04T13:27:18;17.08;;;9.63;;
29162;SDS011;20331;53.144;8.208;2023-12-04T13:32:40;14.13;;;9.07;;
29162;SDS011;20331;53.144;8.208;2023-12-04T13:38:02;15.85;;;9.68;;
29162;SDS011;20331;53.144;8.208;2023-12-04T13:43:24;15.60;;;10.00;;
29162;SDS011;20331;53.144;8.208;2023-12-04T13:49:04;16.63;;;9.75;;
29162;SDS011;20331;53.144;8.208;2023-12-04T13:54:26;14.43;;;9.48;;
29162;SDS011;20331;53.144;8.208;2023-12-04T14:00:04;15.88;;;9.93;;
29162;SDS011;20331;53.144;8.208;2023-12-04T14:05:27;15.30;;;10.07;;
29162;SDS011;20331;53.144;8.208;2023-12-04T14:10:49;16.42;;;10.02;;
29162;SDS011;20331;53.144;8.208;2023-12-04T14:16:12;14.82;;;9.43;;
29162;SDS011;20331;53.144;8.208;2023-12-04T14:21:33;15.85;;;9.82;;
29162;SDS011;20331;53.144;8.208;2023-12-04T14:26:55;14.48;;;9.95;;
29162;SDS011;20331;53.144;8.208;2023-12-04T14:32:17;16.05;;;10.00;;
29162;SDS011;20331;53.144;8.208;2023-12-04T14:37:41;15.57;;;9.98;;
29162;SDS011;20331;53.144;8.208;2023-12-04T14:43:03;16.95;;;10.75;;
29162;SDS011;20331;53.144;8.208;2023-12-04T14:48:26;18.13;;;11.13;;
29162;SDS011;20331;53.144;8.208;2023-12-04T14:53:49;16.30;;;10.32;;
29162;SDS011;20331;53.144;8.208;2023-12-04T14:59:12;19.70;;;10.82;;
29162;SDS011;20331;53.144;8.208;2023-12-04T15:04:54;16.60;;;10.18;;
29162;SDS011;20331;53.144;8.208;2023-12-04T15:10:19;17.85;;;10.65;;
29162;SDS011;20331;53.144;8.208;2023-12-04T15:15:43;16.70;;;9.48;;
29162;SDS011;20331;53.144;8.208;2023-12-04T15:21:31;14.75;;;10.15;;
29162;SDS011;20331;53.144;8.208;2023-12-04T15:26:53;17.20;;;10.23;;
29162;SDS011;20331;53.144;8.208;2023-12-04T15:32:14;14.50;;;9.30;;
29162;SDS011;20331;53.144;8.208;2023-12-04T15:37:37;16.20;;;9.68;;
29162;SDS011;20331;53.144;8.208;2023-12-04T15:42:58;16.33;;;9.20;;
29162;SDS011;20331;53.144;8.208;2023-12-04T15:48:20;15.32;;;9.88;;
29162;SDS011;20331;53.144;8.208;2023-12-04T15:53:41;16.52;;;10.23;;
29162;SDS011;20331;53.144;8.208;2023-12-04T15:59:03;16.95;;;10.18;;
29162;SDS011;20331;53.144;8.208;2023-12-04T16:04:25;15.10;;;9.75;;
29162;SDS011;20331;53.144;8.208;2023-12-04T16:09:47;16.10;;;9.18;;
29162;SDS011;20331;53.144;8.208;2023-12-04T16:15:09;14.55;;;9.15;;
29162;SDS011;20331;53.144;8.208;2023-12-04T16:20:32;15.63;;;9.63;;
29162;SDS011;20331;53.144;8.208;2023-12-04T16:25:54;23.80;;;10.18;;
29162;SDS011;20331;53.144;8.208;2023-12-04T16:31:16;14.75;;;9.20;;
29162;SDS011;20331;53.144;8.208;2023-12-04T16:36:38;17.58;;;9.95;;
29162;SDS011;20331;53.144;8.208;2023-12-04T16:41:59;16.27;;;9.68;;
29162;SDS011;20331;53.144;8.208;2023-12-04T16:47:21;17.95;;;10.10;;
29162;SDS011;20331;53.144;8.208;2023-12-04T16:52:43;14.27;;;9.07;;
29162;SDS011;20331;53.144;8.208;2023-12-04T16:58:04;14.73;;;9.52;;
29162;SDS011;20331;53.144;8.208;2023-12-04T17:03:28;16.92;;;9.25;;
29162;SDS011;20331;53.144;8.208;2023-12-04T17:08:50;14.88;;;9.70;;
29162;SDS011;20331;53.144;8.208;2023-12-04T17:14:11;14.90;;;9.45;;
29162;SDS011;20331;53.144;8.208;2023-12-04T17:19:33;17.00;;;9.63;;
29162;SDS011;20331;53.144;8.208;2023-12-04T17:24:56;16.50;;;10.20;;
29162;SDS011;20331;53.144;8.208;2023-12-04T17:30:18;17.20;;;10.13;;
29162;SDS011;20331;53.144;8.208;2023-12-04T17:35:40;14.90;;;9.65;;
29162;SDS011;20331;53.144;8.208;2023-12-04T17:41:02;15.18;;;9.48;;
29162;SDS011;20331;53.144;8.208;2023-12-04T17:46:24;14.65;;;9.48;;
29162;SDS011;20331;53.144;8.208;2023-12-04T17:51:45;13.48;;;9.02;;
29162;SDS011;20331;53.144;8.208;2023-12-04T17:57:07;16.45;;;10.13;;
29162;SDS011;20331;53.144;8.208;2023-12-04T18:02:29;15.20;;;8.50;;
29162;SDS011;20331;53.144;8.208;2023-12-04T18:07:51;14.18;;;9.05;;
29162;SDS011;20331;53.144;8.208;2023-12-04T18:13:13;14.65;;;8.70;;
29162;SDS011;20331;53.144;8.208;2023-12-04T18:18:34;13.13;;;9.00;;
29162;SDS011;20331;53.144;8.208;2023-12-04T18:23:56;13.35;;;8.32;;
29162;SDS011;20331;53.144;8.208;2023-12-04T18:29:18;15.68;;;9.23;;
29162;SDS011;20331;53.144;8.208;2023-12-04T18:34:40;14.93;;;9.10;;
29162;SDS011;20331;53.144;8.208;2023-12-04T18:40:02;13.05;;;8.63;;
29162;SDS011;20331;53.144;8.208;2023-12-04T18:45:26;13.10;;;8.90;;
29162;SDS011;20331;53.144;8.208;2023-12-04T18:50:48;14.50;;;9.25;;
29162;SDS011;20331;53.144;8.208;2023-12-04T18:56:11;15.93;;;9.18;;
29162;SDS011;20331;53.144;8.208;2023-12-04T19:01:33;16.15;;;9.52;;
29162;SDS011;20331;53.144;8.208;2023-12-04T19:06:56;15.27;;;9.02;;
29162;SDS011;20331;53.144;8.208;2023-12-04T19:12:18;12.35;;;8.90;;
29162;SDS011;20331;53.144;8.208;2023-12-04T19:17:40;15.20;;;9.23;;
29162;SDS011;20331;53.144;8.208;2023-12-04T19:23:02;15.68;;;8.88;;
29162;SDS011;20331;53.144;8.208;2023-12-04T19:28:24;14.25;;;9.23;;
29162;SDS011;20331;53.144;8.208;2023-12-04T19:33:50;16.92;;;8.98;;
29162;SDS011;20331;53.144;8.208;2023-12-04T19:39:12;14.93;;;9.13;;
29162;SDS011;20331;53.144;8.208;2023-12-04T19:44:33;13.27;;;8.63;;
29162;SDS011;20331;53.144;8.208;2023-12-04T19:49:55;14.60;;;8.32;;
29162;SDS011;20331;53.144;8.208;2023-12-04T19:55:17;13.07;;;8.63;;
29162;SDS011;20331;53.144;8.208;2023-12-04T20:00:39;14.82;;;8.07;;
29162;SDS011;20331;53.144;8.208;2023-12-04T20:06:01;14.20;;;8.88;;
29162;SDS011;20331;53.144;8.208;2023-12-04T20:11:24;15.30;;;7.80;;
29162;SDS011;20331;53.144;8.208;2023-12-04T20:16:48;13.40;;;8.07;;
29162;SDS011;20331;53.144;8.208;2023-12-04T20:22:13;11.45;;;7.45;;
29162;SDS011;20331;53.144;8.208;2023-12-04T20:27:37;12.00;;;7.18;;
29162;SDS011;20331;53.144;8.208;2023-12-04T20:33:00;11.60;;;7.22;;
29162;SDS011;20331;53.144;8.208;2023-12-04T20:38:21;12.98;;;6.97;;
29162;SDS011;20331;53.144;8.208;2023-12-04T20:43:44;14.35;;;7.90;;
29162;SDS011;20331;53.144;8.208;2023-12-04T20:49:06;12.45;;;7.57;;
29162;SDS011;20331;53.144;8.208;2023-12-04T20:54:29;12.38;;;7.30;;
29162;SDS011;20331;53.144;8.208;2023-12-04T20:59:50;12.25;;;7.43;;
29162;SDS011;20331;53.144;8.208;2023-12-04T21:05:12;11.55;;;7.35;;
29162;SDS011;20331;53.144;8.208;2023-12-04T21:10:34;13.85;;;7.75;;
29162;SDS011;20331;53.144;8.208;2023-12-04T21:15:56;13.68;;;8.05;;
29162;SDS011;20331;53.144;8.208;2023-12-04T21:21:17;14.15;;;7.93;;
29162;SDS011;20331;53.144;8.208;2023-12-04T21:26:39;12.63;;;8.00;;
29162;SDS011;20331;53.144;8.208;2023-12-04T21:32:01;12.40;;;7.70;;
29162;SDS011;20331;53.144;8.208;2023-12-04T21:37:23;13.23;;;7.85;;
29162;SDS011;20331;53.144;8.208;2023-12-04T21:42:45;12.07;;;7.50;;
29162;SDS011;20331;53.144;8.208;2023-12-04T21:48:07;13.25;;;8.75;;
29162;SDS011;20331;53.144;8.208;2023-12-04T21:53:29;12.35;;;7.78;;
29162;SDS011;20331;53.144;8.208;2023-12-04T21:58:51;14.30;;;8.27;;
29162;SDS011;20331;53.144;8.208;2023-12-04T22:04:13;13.63;;;8.13;;
29162;SDS011;20331;53.144;8.208;2023-12-04T22:09:35;12.85;;;8.25;;
29162;SDS011;20331;53.144;8.208;2023-12-04T22:14:56;11.45;;;7.38;;
29162;SDS011;20331;53.144;8.208;2023-12-04T22:20:19;13.40;;;8.93;;
29162;SDS011;20331;53.144;8.208;2023-12-04T22:25:41;17.40;;;9.00;;
29162;SDS011;20331;53.144;8.208;2023-12-04T22:31:03;13.45;;;8.45;;
29162;SDS011;20331;53.144;8.208;2023-12-04T22:36:25;14.45;;;8.77;;
29162;SDS011;20331;53.144;8.208;2023-12-04T22:41:47;15.27;;;8.88;;
29162;SDS011;20331;53.144;8.208;2023-12-04T22:47:09;19.70;;;9.52;;
29162;SDS011;20331;53.144;8.208;2023-12-04T22:52:30;18.30;;;8.75;;
29162;SDS011;20331;53.144;8.208;2023-12-04T22:57:52;20.10;;;9.88;;
29162;SDS011;20331;53.144;8.208;2023-12-04T23:03:14;15.57;;;9.32;;
29162;SDS011;20331;53.144;8.208;2023-12-04T23:08:35;17.40;;;9.27;;
29162;SDS011;20331;53.144;8.208;2023-12-04T23:13:57;17.60;;;10.15;;
29162;SDS011;20331;53.144;8.208;2023-12-04T23:19:19;17.50;;;9.68;;
29162;SDS011;20331;53.144;8.208;2023-12-04T23:24:40;16.70;;;9.55;;
29162;SDS011;20331;53.144;8.208;2023-12-04T23:30:02;15.43;;;9.55;;
29162;SDS011;20331;53.144;8.208;2023-12-04T23:35:25;15.90;;;9.40;;
29162;SDS011;20331;53.144;8.208;2023-12-04T23:40:47;17.40;;;10.25;;
29162;SDS011;20331;53.144;8.208;2023-12-04T23:46:09;18.23;;;10.80;;
29162;SDS011;20331;53.144;8.208;2023-12-04T23:51:30;17.27;;;10.23;;
29162;SDS011;20331;53.144;8.208;2023-12-04T23:56:52;17.90;;;10.13;;
